Time;durP1;ratioP1;P1;durP2;ratioP2;P2;SDS_P1;SDS_P2;PMS_P1;PMS_P2;Temp;Humidity;BMP_temperature;BMP_pressure;BME280_temperature;BME280_humidity;BME280_pressure;Samples;Min_cycle;Max_cycle;Signal;HPM_P1;HPM_P2
2023/07/25 00:09:37;;;;;;;3.73;2.40;;;20.00;86.50;;;;;;20840156;28;20238;-65
2023/07/25 00:19:39;;;;;;;7.33;2.00;;;20.00;87.20;;;;;;20839948;28;20231;-63
2023/07/25 00:29:40;;;;;;;3.00;1.97;;;20.10;86.00;;;;;;20838607;28;20239;-62
2023/07/25 00:39:42;;;;;;;6.00;1.67;;;20.10;86.50;;;;;;20836890;28;20214;-61
2023/07/25 00:49:45;;;;;;;2.40;2.00;;;20.00;86.40;;;;;;20837483;28;20610;-62
2023/07/25 00:59:47;;;;;;;2.00;1.80;;;19.90;86.50;;;;;;20835890;28;20683;-62
2023/07/25 01:09:49;;;;;;;3.47;2.00;;;19.90;86.90;;;;;;20835143;28;20235;-62
2023/07/25 01:19:52;;;;;;;3.03;2.20;;;19.80;87.30;;;;;;20835070;28;20208;-70
2023/07/25 01:29:54;;;;;;;2.60;1.80;;;19.80;88.00;;;;;;20833525;28;20243;-69
2023/07/25 01:39:55;;;;;;;2.03;1.70;;;19.80;88.00;;;;;;20833336;28;20216;-68
2023/07/25 01:49:57;;;;;;;2.80;2.00;;;19.90;87.70;;;;;;20832643;28;20607;-69
2023/07/25 01:59:59;;;;;;;2.63;1.90;;;19.90;87.40;;;;;;20831573;28;20240;-71
2023/07/25 02:10:01;;;;;;;2.53;2.00;;;19.90;86.80;;;;;;20831134;28;20249;-68
2023/07/25 02:20:03;;;;;;;2.10;1.73;;;20.00;86.70;;;;;;20831102;28;20208;-70
2023/07/25 02:30:06;;;;;;;3.43;2.10;;;20.00;86.60;;;;;;20829314;28;20238;-69
2023/07/25 02:40:08;;;;;;;2.10;1.80;;;20.00;86.90;;;;;;20829585;28;20204;-62
2023/07/25 02:50:09;;;;;;;2.60;2.00;;;20.00;86.80;;;;;;20829382;28;20239;-62
2023/07/25 03:00:12;;;;;;;4.17;2.20;;;19.50;89.10;;;;;;20828467;28;20236;-62
2023/07/25 03:10:14;;;;;;;3.20;2.33;;;19.40;90.40;;;;;;20828290;28;20330;-62
2023/07/25 03:20:15;;;;;;;3.40;2.20;;;19.20;90.90;;;;;;20828481;28;20302;-62
2023/07/25 03:30:18;;;;;;;3.27;2.20;;;19.10;91.30;;;;;;20827523;28;20601;-62
2023/07/25 03:40:19;;;;;;;5.33;2.50;;;18.80;91.60;;;;;;20839314;28;20658;-62
2023/07/25 03:50:21;;;;;;;4.90;2.50;;;18.70;92.10;;;;;;20841971;28;20596;-62
2023/07/25 04:00:23;;;;;;;3.73;2.23;;;;;;;;;;20840788;28;20243;-68
2023/07/25 04:10:25;;;;;;;4.80;2.40;;;18.70;93.10;;;;;;20840098;28;20237;-70
2023/07/25 04:20:27;;;;;;;2.83;2.43;;;;;;;;;;20839754;28;20709;-68
2023/07/25 04:30:29;;;;;;;6.10;2.67;;;;;;;;;;20838477;28;20243;-72
2023/07/25 04:40:32;;;;;;;5.60;2.30;;;;;;;;;;20837951;28;20634;-68
2023/07/25 04:50:33;;;;;;;4.10;2.20;;;18.80;93.60;;;;;;20836279;28;20240;-63
2023/07/25 05:00:35;;;;;;;7.80;3.30;;;;;;;;;;20836101;28;20238;-73
2023/07/25 05:10:37;;;;;;;9.03;2.80;;;18.90;93.90;;;;;;20835370;28;20242;-73
2023/07/25 05:20:39;;;;;;;6.50;2.90;;;;;;;;;;20834750;28;20572;-67
2023/07/25 05:30:41;;;;;;;9.93;3.27;;;19.10;94.30;;;;;;20833258;28;20239;-69
2023/07/25 05:40:43;;;;;;;32.27;4.50;;;19.20;94.20;;;;;;20832603;28;20204;-67
2023/07/25 05:50:50;;;;;;;15.20;3.83;;;19.40;94.40;;;;;;20830746;28;20244;-66
2023/07/25 06:00:52;;;;;;;9.43;2.80;;;19.40;94.30;;;;;;20830241;28;20258;-66
2023/07/25 06:10:54;;;;;;;3.80;2.60;;;19.70;93.80;;;;;;20830553;28;20334;-66
2023/07/25 06:20:55;;;;;;;5.50;3.27;;;19.80;94.10;;;;;;20830486;28;20307;-65
2023/07/25 06:30:57;;;;;;;7.13;3.70;;;20.00;93.70;;;;;;20829424;28;20238;-65
2023/07/25 06:40:59;;;;;;;11.50;4.33;;;20.00;93.90;;;;;;20829248;28;20295;-66
2023/07/25 06:51:01;;;;;;;11.63;3.40;;;20.10;93.80;;;;;;20828937;28;20245;-67
2023/07/25 07:01:03;;;;;;;14.77;4.43;;;20.20;93.60;;;;;;20828225;28;20711;-65
2023/07/25 07:11:04;;;;;;;12.50;4.10;;;20.20;93.50;;;;;;20833918;28;20331;-65
2023/07/25 07:21:06;;;;;;;8.17;3.23;;;20.10;93.60;;;;;;20843776;28;20656;-65
2023/07/25 07:31:12;;;;;;;5.73;3.40;;;20.10;93.80;;;;;;20842852;28;20262;-65
2023/07/25 07:41:14;;;;;;;7.83;2.93;;;20.00;94.30;;;;;;20842195;28;20212;-67
2023/07/25 07:51:15;;;;;;;5.20;3.33;;;19.90;95.00;;;;;;20841727;28;20240;-65
2023/07/25 08:01:19;;;;;;;6.60;2.60;;;19.60;95.70;;;;;;20839991;28;20262;-67
2023/07/25 08:11:21;;;;;;;7.30;3.30;;;19.40;96.50;;;;;;20839393;28;20278;-66
2023/07/25 08:21:23;;;;;;;14.87;3.60;;;19.30;97.00;;;;;;20838193;28;20207;-67
2023/07/25 08:31:24;;;;;;;9.50;2.70;;;19.30;97.30;;;;;;20838208;28;20730;-64
2023/07/25 08:41:30;;;;;;;6.90;2.93;;;19.50;97.60;;;;;;20837485;28;20257;-66
2023/07/25 08:51:34;;;;;;;5.60;2.60;;;19.80;97.90;;;;;;20836998;28;20236;-67
2023/07/25 09:01:37;;;;;;;5.20;3.00;;;19.80;97.80;;;;;;20836133;28;20235;-68
2023/07/25 09:11:39;;;;;;;6.77;2.60;;;20.00;97.80;;;;;;20834696;28;20330;-69
2023/07/25 09:21:49;;;;;;;6.47;2.67;;;20.10;97.80;;;;;;20833942;28;20239;-67
2023/07/25 09:31:50;;;;;;;9.73;2.80;;;20.50;97.60;;;;;;20833167;28;20346;-66
2023/07/25 09:41:52;;;;;;;7.27;4.67;;;20.70;97.30;;;;;;20832134;28;20204;-65
2023/07/25 09:52:03;;;;;;;9.77;3.23;;;21.00;97.30;;;;;;20831202;28;20395;-68
2023/07/25 10:02:05;;;;;;;5.50;3.30;;;21.20;97.10;;;;;;20830896;28;20330;-67
2023/07/25 10:12:11;;;;;;;6.33;2.77;;;21.40;97.10;;;;;;20830404;28;20710;-69
2023/07/25 10:22:12;;;;;;;5.93;2.97;;;21.80;96.40;;;;;;20830027;28;20292;-66
2023/07/25 10:32:16;;;;;;;4.20;2.60;;;21.90;96.10;;;;;;20829509;28;20234;-67
2023/07/25 10:42:40;;;;;;;2.60;1.80;;;21.80;95.80;;;;;;20829086;28;20204;-65
2023/07/25 10:52:56;;;;;;;2.73;1.77;;;21.70;94.90;;;;;;20845930;28;20721;-64
2023/07/25 11:02:58;;;;;;;6.43;2.00;;;21.60;94.40;;;;;;20844553;28;20699;-65
2023/07/25 11:13:00;;;;;;;2.23;1.77;;;22.00;94.90;;;;;;20844365;28;20243;-65
2023/07/25 11:23:02;;;;;;;3.73;2.20;;;22.30;93.50;;;;;;20843134;28;20244;-64
2023/07/25 11:33:04;;;;;;;3.47;1.80;;;22.10;92.90;;;;;;20842511;28;20248;-66
2023/07/25 11:43:13;;;;;;;3.63;1.83;;;22.10;92.60;;;;;;20841661;28;20201;-64
2023/07/25 11:53:16;;;;;;;1.80;1.60;;;21.60;93.20;;;;;;20840891;28;20238;-65
2023/07/25 12:03:19;;;;;;;3.33;2.30;;;21.10;94.20;;;;;;20839732;28;20240;-68
2023/07/25 12:13:20;;;;;;;4.53;2.60;;;20.70;95.30;;;;;;20839235;28;20267;-66
2023/07/25 12:23:30;;;;;;;3.30;1.40;;;20.20;95.70;;;;;;20837710;28;20212;-70
2023/07/25 12:33:31;;;;;;;4.87;1.23;;;19.70;96.20;;;;;;20837862;28;20245;-68
2023/07/25 12:43:34;;;;;;;3.37;1.00;;;19.50;96.40;;;;;;20836789;28;20306;-67
2023/07/25 12:53:36;;;;;;;1.27;1.17;;;19.60;96.50;;;;;;20857817;28;20253;-73
2023/07/25 13:03:40;;;;;;;4.00;1.30;;;19.80;96.40;;;;;;20902683;28;20231;-71
2023/07/25 13:13:42;;;;;;;2.53;1.50;;;19.90;95.70;;;;;;20835703;28;20228;-73
2023/07/25 13:23:44;;;;;;;4.40;1.27;;;20.20;95.40;;;;;;20857028;28;20681;-68
2023/07/25 13:33:46;;;;;;;1.33;1.23;;;20.50;94.20;;;;;;20867940;28;20278;-70
2023/07/25 13:43:47;;;;;;;3.70;1.20;;;20.60;93.30;;;;;;20902400;28;20204;-70
2023/07/25 13:53:49;;;;;;;5.47;1.47;;;20.60;92.50;;;;;;20831716;28;20240;-69
2023/07/25 14:03:51;;;;;;;2.20;1.37;;;20.60;91.80;;;;;;20830984;28;20242;-81
2023/07/25 14:13:53;;;;;;;1.40;1.30;;;20.80;91.00;;;;;;20828518;28;20712;-70
2023/07/25 14:23:55;;;;;;;3.13;1.47;;;20.80;88.60;;;;;;20828875;28;20208;-70
2023/07/25 14:33:57;;;;;;;1.83;1.60;;;20.70;86.70;;;;;;20829948;28;20718;-69
2023/07/25 14:43:59;;;;;;;6.50;2.03;;;20.60;86.20;;;;;;20827902;28;20289;-69
2023/07/25 14:54:01;;;;;;;6.07;1.70;;;20.70;86.50;;;;;;20828815;28;20695;-70
2023/07/25 15:04:03;;;;;;;3.10;1.80;;;20.80;86.60;;;;;;20828683;28;20658;-69
2023/07/25 15:14:05;;;;;;;3.23;1.80;;;20.20;85.60;;;;;;20827894;28;20665;-72
2023/07/25 15:24:06;;;;;;;3.87;2.00;;;21.60;87.90;;;;;;20827501;28;20251;-69
2023/07/25 15:34:08;;;;;;;5.07;1.63;;;20.70;85.80;;;;;;20836224;28;20290;-70
2023/07/25 15:44:10;;;;;;;2.80;1.90;;;20.30;85.90;;;;;;20841853;28;20209;-74
2023/07/25 15:54:12;;;;;;;3.70;1.70;;;20.00;87.40;;;;;;20840891;28;20931;-72
2023/07/25 16:04:14;;;;;;;4.17;1.60;;;19.70;87.30;;;;;;20840540;28;20652;-70
2023/07/25 16:14:15;;;;;;;5.37;1.90;;;20.00;85.70;;;;;;20839668;28;20239;-60
2023/07/25 16:24:17;;;;;;;2.17;1.70;;;20.30;83.80;;;;;;20839169;28;20219;-60
2023/07/25 16:34:19;;;;;;;3.40;1.80;;;22.10;76.20;;;;;;20838533;28;20229;-60
2023/07/25 16:44:21;;;;;;;2.23;1.57;;;22.10;76.70;;;;;;20868805;28;20207;-60
2023/07/25 16:54:25;;;;;;;1.60;1.50;;;21.10;76.10;;;;;;20875800;28;20264;-61
2023/07/25 17:04:26;;;;;;;2.17;1.63;;;21.10;76.10;;;;;;20870500;28;20264;-59
2023/07/25 17:14:28;;;;;;;2.63;1.70;;;20.90;76.90;;;;;;20870358;28;20761;-70
2023/07/25 17:24:30;;;;;;;3.03;1.80;;;20.60;77.00;;;;;;20882385;28;20216;-68
2023/07/25 17:34:32;;;;;;;3.40;1.80;;;20.20;77.40;;;;;;20845812;28;20228;-64
2023/07/25 17:44:34;;;;;;;1.60;1.50;;;20.00;77.30;;;;;;20913519;28;20568;-63
2023/07/25 17:54:36;;;;;;;3.37;1.57;;;19.80;77.20;;;;;;20911589;28;20238;-60
2023/07/25 18:04:38;;;;;;;5.03;1.93;;;19.80;77.50;;;;;;20914257;28;20756;-64
2023/07/25 18:14:39;;;;;;;4.80;2.07;;;19.80;77.70;;;;;;20912790;28;20235;-65
2023/07/25 18:24:41;;;;;;;5.00;2.30;;;19.70;77.90;;;;;;20879853;28;20218;-64
2023/07/25 18:34:43;;;;;;;5.97;2.00;;;19.50;78.00;;;;;;20867570;28;20226;-62
2023/07/25 18:44:45;;;;;;;5.40;1.97;;;19.50;78.30;;;;;;20877745;28;20206;-62
2023/07/25 18:54:46;;;;;;;3.00;1.70;;;19.50;78.80;;;;;;20841876;28;20235;-63
2023/07/25 19:04:49;;;;;;;2.93;1.60;;;19.50;79.00;;;;;;20873312;28;20323;-64
2023/07/25 19:14:50;;;;;;;3.30;1.97;;;19.50;79.40;;;;;;20875990;28;20289;-61
2023/07/25 19:24:52;;;;;;;4.93;1.80;;;19.50;80.20;;;;;;20875979;28;20212;-62
2023/07/25 19:34:54;;;;;;;3.07;1.90;;;19.50;81.10;;;;;;20880440;28;20230;-59
2023/07/25 19:44:56;;;;;;;3.33;1.90;;;19.40;82.00;;;;;;20878727;28;20218;-61
2023/07/25 19:54:58;;;;;;;2.30;2.10;;;19.30;83.80;;;;;;20868886;28;20604;-62
2023/07/25 20:04:59;;;;;;;2.90;2.30;;;19.20;85.30;;;;;;20882153;28;20240;-66
2023/07/25 20:15:02;;;;;;;5.10;2.33;;;19.00;87.10;;;;;;20872108;28;20251;-62
2023/07/25 20:25:04;;;;;;;8.13;2.60;;;18.50;89.00;;;;;;20860850;28;20264;-64
2023/07/25 20:35:06;;;;;;;2.33;1.97;;;;;;;;;;20873848;28;20320;-66
2023/07/25 20:45:08;;;;;;;4.53;2.40;;;18.40;90.90;;;;;;20866483;28;20685;-66
2023/07/25 20:55:10;;;;;;;4.83;2.50;;;;;;;;;;20872113;28;20253;-64
2023/07/25 21:05:12;;;;;;;3.30;2.47;;;;;;;;;;20876336;28;20336;-60
2023/07/25 21:15:14;;;;;;;2.87;2.33;;;18.20;92.30;;;;;;20860589;28;20336;-61
2023/07/25 21:25:16;;;;;;;2.60;2.20;;;;;;;;;;20867942;28;20706;-61
2023/07/25 21:35:18;;;;;;;3.30;2.13;;;;;;;;;;20861038;28;20714;-61
2023/07/25 21:45:21;;;;;;;6.53;2.33;;;;;;;;;;20833567;28;20289;-61
2023/07/25 21:55:23;;;;;;;5.03;2.27;;;;;;;;;;20832612;28;20244;-61
2023/07/25 22:05:25;;;;;;;4.30;1.93;;;;;;;;;;20831592;28;20242;-61
2023/07/25 22:15:27;;;;;;;6.60;2.00;;;;;;;;;;20831737;28;20607;-61
2023/07/25 22:25:29;;;;;;;5.27;1.90;;;;;;;;;;20830945;28;20237;-59
2023/07/25 22:35:32;;;;;;;5.30;2.10;;;;;;;;;;20829983;28;20235;-59
2023/07/25 22:45:34;;;;;;;4.43;1.90;;;;;;;;;;20829259;28;20208;-62
2023/07/25 22:55:37;;;;;;;4.30;1.80;;;;;;;;;;20829244;28;20241;-62
2023/07/25 23:05:39;;;;;;;2.23;1.87;;;;;;;;;;20828585;28;20247;-62
2023/07/25 23:15:42;;;;;;;3.23;1.87;;;;;;;;;;20828827;28;20262;-63
2023/07/25 23:25:45;;;;;;;4.20;2.27;;;;;;;;;;20828048;28;20247;-63
2023/07/25 23:35:47;;;;;;;4.50;2.17;;;;;;;;;;20827348;28;20279;-62
2023/07/25 23:45:49;;;;;;;5.40;2.50;;;;;;;;;;20827882;28;20205;-63
2023/07/25 23:55:51;;;;;;;3.67;2.20;;;;;;;;;;20836598;28;20228;-59
